sensor_id;sensor_type;location;lat;lon;timestamp;P1;durP1;ratioP1;P2;durP2;ratioP2
39518;SDS011;25200;53.394;10.414;2022-08-25T00:01:18;7.30;;;2.80;;
39518;SDS011;25200;53.394;10.414;2022-08-25T00:03:48;8.82;;;3.03;;
39518;SDS011;25200;53.394;10.414;2022-08-25T00:06:14;7.22;;;3.40;;
39518;SDS011;25200;53.394;10.414;2022-08-25T00:08:40;5.38;;;3.17;;
39518;SDS011;25200;53.394;10.414;2022-08-25T00:11:11;6.57;;;2.90;;
39518;SDS011;25200;53.394;10.414;2022-08-25T00:13:39;6.30;;;3.10;;
39518;SDS011;25200;53.394;10.414;2022-08-25T00:16:08;9.48;;;3.20;;
39518;SDS011;25200;53.394;10.414;2022-08-25T00:18:35;6.38;;;2.90;;
39518;SDS011;25200;53.394;10.414;2022-08-25T00:21:02;8.55;;;3.08;;
39518;SDS011;25200;53.394;10.414;2022-08-25T00:23:28;8.02;;;3.25;;
39518;SDS011;25200;53.394;10.414;2022-08-25T00:25:54;7.60;;;2.90;;
39518;SDS011;25200;53.394;10.414;2022-08-25T00:28:20;6.13;;;3.08;;
39518;SDS011;25200;53.394;10.414;2022-08-25T00:30:46;5.75;;;3.08;;
39518;SDS011;25200;53.394;10.414;2022-08-25T00:33:13;10.65;;;3.17;;
39518;SDS011;25200;53.394;10.414;2022-08-25T00:35:39;4.90;;;2.80;;
39518;SDS011;25200;53.394;10.414;2022-08-25T00:38:06;7.78;;;3.42;;
39518;SDS011;25200;53.394;10.414;2022-08-25T00:40:32;5.93;;;2.75;;
39518;SDS011;25200;53.394;10.414;2022-08-25T00:42:58;5.45;;;2.90;;
39518;SDS011;25200;53.394;10.414;2022-08-25T00:45:24;7.22;;;3.13;;
39518;SDS011;25200;53.394;10.414;2022-08-25T00:47:51;5.43;;;2.88;;
39518;SDS011;25200;53.394;10.414;2022-08-25T00:50:17;5.38;;;3.08;;
39518;SDS011;25200;53.394;10.414;2022-08-25T00:52:45;6.97;;;3.15;;
39518;SDS011;25200;53.394;10.414;2022-08-25T00:55:18;7.25;;;3.05;;
39518;SDS011;25200;53.394;10.414;2022-08-25T00:57:49;7.82;;;3.10;;
39518;SDS011;25200;53.394;10.414;2022-08-25T01:00:24;7.95;;;3.35;;
39518;SDS011;25200;53.394;10.414;2022-08-25T01:02:53;5.25;;;2.80;;
39518;SDS011;25200;53.394;10.414;2022-08-25T01:05:20;5.47;;;2.90;;
39518;SDS011;25200;53.394;10.414;2022-08-25T01:07:48;10.27;;;3.55;;
39518;SDS011;25200;53.394;10.414;2022-08-25T01:10:15;5.53;;;3.00;;
39518;SDS011;25200;53.394;10.414;2022-08-25T01:12:43;6.97;;;3.35;;
39518;SDS011;25200;53.394;10.414;2022-08-25T01:15:11;7.60;;;3.05;;
39518;SDS011;25200;53.394;10.414;2022-08-25T01:17:49;5.47;;;2.80;;
39518;SDS011;25200;53.394;10.414;2022-08-25T01:20:17;5.65;;;2.90;;
39518;SDS011;25200;53.394;10.414;2022-08-25T01:22:46;6.22;;;3.10;;
39518;SDS011;25200;53.394;10.414;2022-08-25T01:27:55;8.18;;;3.17;;
39518;SDS011;25200;53.394;10.414;2022-08-25T01:30:21;6.88;;;3.05;;
39518;SDS011;25200;53.394;10.414;2022-08-25T01:32:47;7.78;;;3.17;;
39518;SDS011;25200;53.394;10.414;2022-08-25T01:35:13;8.20;;;3.60;;
39518;SDS011;25200;53.394;10.414;2022-08-25T01:37:39;5.78;;;3.40;;
39518;SDS011;25200;53.394;10.414;2022-08-25T01:40:05;7.63;;;3.03;;
39518;SDS011;25200;53.394;10.414;2022-08-25T01:45:11;6.78;;;3.00;;
39518;SDS011;25200;53.394;10.414;2022-08-25T01:47:36;9.77;;;3.03;;
39518;SDS011;25200;53.394;10.414;2022-08-25T01:50:03;7.55;;;3.33;;
39518;SDS011;25200;53.394;10.414;2022-08-25T01:52:45;6.50;;;2.80;;
39518;SDS011;25200;53.394;10.414;2022-08-25T01:55:31;7.13;;;3.40;;
39518;SDS011;25200;53.394;10.414;2022-08-25T01:58:16;6.85;;;3.33;;
39518;SDS011;25200;53.394;10.414;2022-08-25T02:00:44;10.75;;;3.17;;
39518;SDS011;25200;53.394;10.414;2022-08-25T02:03:14;6.25;;;2.85;;
39518;SDS011;25200;53.394;10.414;2022-08-25T02:05:40;6.70;;;3.53;;
39518;SDS011;25200;53.394;10.414;2022-08-25T02:08:06;6.90;;;3.33;;
39518;SDS011;25200;53.394;10.414;2022-08-25T02:10:32;6.72;;;3.10;;
39518;SDS011;25200;53.394;10.414;2022-08-25T02:12:58;7.40;;;3.13;;
39518;SDS011;25200;53.394;10.414;2022-08-25T02:15:24;7.22;;;3.28;;
39518;SDS011;25200;53.394;10.414;2022-08-25T02:17:50;6.43;;;3.10;;
39518;SDS011;25200;53.394;10.414;2022-08-25T02:20:16;5.65;;;3.00;;
39518;SDS011;25200;53.394;10.414;2022-08-25T02:22:42;7.55;;;3.30;;
39518;SDS011;25200;53.394;10.414;2022-08-25T02:25:08;8.63;;;3.40;;
39518;SDS011;25200;53.394;10.414;2022-08-25T02:27:34;6.88;;;3.30;;
39518;SDS011;25200;53.394;10.414;2022-08-25T02:30:00;7.95;;;3.20;;
39518;SDS011;25200;53.394;10.414;2022-08-25T02:32:28;5.10;;;2.90;;
39518;SDS011;25200;53.394;10.414;2022-08-25T02:34:53;6.85;;;3.30;;
39518;SDS011;25200;53.394;10.414;2022-08-25T02:37:19;8.90;;;4.05;;
39518;SDS011;25200;53.394;10.414;2022-08-25T02:39:45;5.60;;;3.40;;
39518;SDS011;25200;53.394;10.414;2022-08-25T02:42:11;5.57;;;3.13;;
39518;SDS011;25200;53.394;10.414;2022-08-25T02:44:36;5.15;;;3.05;;
39518;SDS011;25200;53.394;10.414;2022-08-25T02:47:02;8.23;;;3.38;;
39518;SDS011;25200;53.394;10.414;2022-08-25T02:49:28;6.22;;;3.42;;
39518;SDS011;25200;53.394;10.414;2022-08-25T02:51:56;5.70;;;3.30;;
39518;SDS011;25200;53.394;10.414;2022-08-25T02:54:23;7.80;;;3.78;;
39518;SDS011;25200;53.394;10.414;2022-08-25T02:56:50;6.18;;;3.00;;
39518;SDS011;25200;53.394;10.414;2022-08-25T02:59:15;6.97;;;3.22;;
39518;SDS011;25200;53.394;10.414;2022-08-25T03:01:42;6.93;;;3.03;;
39518;SDS011;25200;53.394;10.414;2022-08-25T03:04:08;8.43;;;3.50;;
39518;SDS011;25200;53.394;10.414;2022-08-25T03:06:34;6.00;;;3.40;;
39518;SDS011;25200;53.394;10.414;2022-08-25T03:08:59;5.97;;;3.08;;
39518;SDS011;25200;53.394;10.414;2022-08-25T03:11:25;6.63;;;2.97;;
39518;SDS011;25200;53.394;10.414;2022-08-25T03:13:51;6.97;;;3.20;;
39518;SDS011;25200;53.394;10.414;2022-08-25T03:16:18;6.95;;;3.20;;
39518;SDS011;25200;53.394;10.414;2022-08-25T03:18:44;8.27;;;3.65;;
39518;SDS011;25200;53.394;10.414;2022-08-25T03:21:10;5.95;;;3.17;;
39518;SDS011;25200;53.394;10.414;2022-08-25T03:23:38;6.97;;;3.70;;
39518;SDS011;25200;53.394;10.414;2022-08-25T03:26:04;9.00;;;3.40;;
39518;SDS011;25200;53.394;10.414;2022-08-25T03:28:51;5.97;;;3.40;;
39518;SDS011;25200;53.394;10.414;2022-08-25T03:31:19;6.22;;;3.45;;
39518;SDS011;25200;53.394;10.414;2022-08-25T03:33:46;9.15;;;3.72;;
39518;SDS011;25200;53.394;10.414;2022-08-25T03:36:11;6.93;;;3.92;;
39518;SDS011;25200;53.394;10.414;2022-08-25T03:38:37;8.65;;;3.70;;
39518;SDS011;25200;53.394;10.414;2022-08-25T03:41:14;5.80;;;3.33;;
39518;SDS011;25200;53.394;10.414;2022-08-25T03:43:42;8.10;;;3.90;;
39518;SDS011;25200;53.394;10.414;2022-08-25T03:46:08;6.30;;;3.55;;
39518;SDS011;25200;53.394;10.414;2022-08-25T03:48:40;6.05;;;3.30;;
39518;SDS011;25200;53.394;10.414;2022-08-25T03:51:09;6.07;;;3.20;;
39518;SDS011;25200;53.394;10.414;2022-08-25T03:53:35;6.15;;;2.95;;
39518;SDS011;25200;53.394;10.414;2022-08-25T03:56:01;6.60;;;3.30;;
39518;SDS011;25200;53.394;10.414;2022-08-25T03:58:27;7.35;;;3.00;;
39518;SDS011;25200;53.394;10.414;2022-08-25T04:00:52;6.72;;;3.17;;
39518;SDS011;25200;53.394;10.414;2022-08-25T04:03:18;6.43;;;3.38;;
39518;SDS011;25200;53.394;10.414;2022-08-25T04:05:44;5.78;;;3.60;;
39518;SDS011;25200;53.394;10.414;2022-08-25T04:08:11;8.93;;;3.65;;
39518;SDS011;25200;53.394;10.414;2022-08-25T04:10:37;9.98;;;3.50;;
39518;SDS011;25200;53.394;10.414;2022-08-25T04:13:02;8.88;;;3.72;;
39518;SDS011;25200;53.394;10.414;2022-08-25T04:15:28;8.02;;;3.83;;
39518;SDS011;25200;53.394;10.414;2022-08-25T04:17:54;6.57;;;3.45;;
39518;SDS011;25200;53.394;10.414;2022-08-25T04:20:20;6.30;;;3.42;;
39518;SDS011;25200;53.394;10.414;2022-08-25T04:22:46;6.35;;;3.38;;
39518;SDS011;25200;53.394;10.414;2022-08-25T04:25:12;8.05;;;3.40;;
39518;SDS011;25200;53.394;10.414;2022-08-25T04:27:38;6.75;;;3.78;;
39518;SDS011;25200;53.394;10.414;2022-08-25T04:30:04;8.82;;;3.88;;
39518;SDS011;25200;53.394;10.414;2022-08-25T04:32:30;6.18;;;3.72;;
39518;SDS011;25200;53.394;10.414;2022-08-25T04:34:56;8.10;;;3.80;;
39518;SDS011;25200;53.394;10.414;2022-08-25T04:37:22;8.15;;;4.00;;
39518;SDS011;25200;53.394;10.414;2022-08-25T04:39:48;6.38;;;3.83;;
39518;SDS011;25200;53.394;10.414;2022-08-25T04:42:13;12.68;;;4.93;;
39518;SDS011;25200;53.394;10.414;2022-08-25T04:44:39;9.13;;;4.78;;
39518;SDS011;25200;53.394;10.414;2022-08-25T04:47:05;8.20;;;5.03;;
39518;SDS011;25200;53.394;10.414;2022-08-25T04:49:31;8.80;;;5.15;;
39518;SDS011;25200;53.394;10.414;2022-08-25T04:51:57;7.60;;;5.20;;
39518;SDS011;25200;53.394;10.414;2022-08-25T04:54:23;7.43;;;4.60;;
39518;SDS011;25200;53.394;10.414;2022-08-25T04:56:49;10.27;;;5.97;;
39518;SDS011;25200;53.394;10.414;2022-08-25T04:59:16;12.45;;;6.07;;
39518;SDS011;25200;53.394;10.414;2022-08-25T05:01:43;9.40;;;5.82;;
39518;SDS011;25200;53.394;10.414;2022-08-25T05:04:11;8.30;;;5.10;;
39518;SDS011;25200;53.394;10.414;2022-08-25T05:06:38;8.15;;;5.03;;
39518;SDS011;25200;53.394;10.414;2022-08-25T05:09:06;8.10;;;4.97;;
39518;SDS011;25200;53.394;10.414;2022-08-25T05:11:32;9.52;;;5.88;;
39518;SDS011;25200;53.394;10.414;2022-08-25T05:13:59;9.50;;;5.95;;
39518;SDS011;25200;53.394;10.414;2022-08-25T05:16:25;8.25;;;5.15;;
39518;SDS011;25200;53.394;10.414;2022-08-25T05:18:52;9.13;;;5.75;;
39518;SDS011;25200;53.394;10.414;2022-08-25T05:21:20;9.10;;;5.70;;
39518;SDS011;25200;53.394;10.414;2022-08-25T05:23:47;9.07;;;5.88;;
39518;SDS011;25200;53.394;10.414;2022-08-25T05:26:18;9.68;;;5.15;;
39518;SDS011;25200;53.394;10.414;2022-08-25T05:28:45;8.07;;;5.18;;
39518;SDS011;25200;53.394;10.414;2022-08-25T05:31:12;9.85;;;6.13;;
39518;SDS011;25200;53.394;10.414;2022-08-25T05:33:39;9.60;;;5.65;;
39518;SDS011;25200;53.394;10.414;2022-08-25T05:36:06;9.05;;;5.80;;
39518;SDS011;25200;53.394;10.414;2022-08-25T05:38:34;8.95;;;5.53;;
39518;SDS011;25200;53.394;10.414;2022-08-25T05:41:01;8.85;;;5.35;;
39518;SDS011;25200;53.394;10.414;2022-08-25T05:43:29;9.60;;;6.22;;
39518;SDS011;25200;53.394;10.414;2022-08-25T05:45:56;10.43;;;6.07;;
39518;SDS011;25200;53.394;10.414;2022-08-25T05:48:23;9.27;;;5.40;;
39518;SDS011;25200;53.394;10.414;2022-08-25T05:50:51;11.25;;;6.35;;
39518;SDS011;25200;53.394;10.414;2022-08-25T05:53:19;9.73;;;6.28;;
39518;SDS011;25200;53.394;10.414;2022-08-25T05:55:46;8.95;;;6.10;;
39518;SDS011;25200;53.394;10.414;2022-08-25T05:58:13;9.93;;;6.40;;
39518;SDS011;25200;53.394;10.414;2022-08-25T06:00:39;7.72;;;5.60;;
39518;SDS011;25200;53.394;10.414;2022-08-25T06:03:05;9.73;;;5.57;;
39518;SDS011;25200;53.394;10.414;2022-08-25T06:05:31;9.07;;;6.03;;
39518;SDS011;25200;53.394;10.414;2022-08-25T06:07:57;11.35;;;6.30;;
39518;SDS011;25200;53.394;10.414;2022-08-25T06:10:23;8.80;;;5.85;;
39518;SDS011;25200;53.394;10.414;2022-08-25T06:12:49;10.07;;;6.35;;
39518;SDS011;25200;53.394;10.414;2022-08-25T06:15:19;11.98;;;5.93;;
39518;SDS011;25200;53.394;10.414;2022-08-25T06:17:47;9.50;;;5.90;;
39518;SDS011;25200;53.394;10.414;2022-08-25T06:20:14;9.57;;;6.05;;
39518;SDS011;25200;53.394;10.414;2022-08-25T06:22:47;13.32;;;7.20;;
39518;SDS011;25200;53.394;10.414;2022-08-25T06:25:15;9.80;;;5.55;;
39518;SDS011;25200;53.394;10.414;2022-08-25T06:27:44;11.27;;;7.82;;
39518;SDS011;25200;53.394;10.414;2022-08-25T06:30:11;13.38;;;7.18;;
39518;SDS011;25200;53.394;10.414;2022-08-25T06:32:39;10.80;;;7.03;;
39518;SDS011;25200;53.394;10.414;2022-08-25T06:35:08;11.50;;;7.45;;
39518;SDS011;25200;53.394;10.414;2022-08-25T06:37:36;12.18;;;6.40;;
39518;SDS011;25200;53.394;10.414;2022-08-25T06:40:03;12.07;;;7.03;;
39518;SDS011;25200;53.394;10.414;2022-08-25T06:42:31;10.13;;;6.50;;
39518;SDS011;25200;53.394;10.414;2022-08-25T06:44:57;12.30;;;6.90;;
39518;SDS011;25200;53.394;10.414;2022-08-25T06:47:23;13.02;;;8.00;;
39518;SDS011;25200;53.394;10.414;2022-08-25T06:49:49;9.90;;;6.95;;
39518;SDS011;25200;53.394;10.414;2022-08-25T06:52:14;11.88;;;7.32;;
39518;SDS011;25200;53.394;10.414;2022-08-25T06:54:40;10.30;;;6.97;;
39518;SDS011;25200;53.394;10.414;2022-08-25T06:57:07;13.02;;;8.13;;
39518;SDS011;25200;53.394;10.414;2022-08-25T06:59:33;11.80;;;7.72;;
39518;SDS011;25200;53.394;10.414;2022-08-25T07:02:00;11.30;;;6.32;;
39518;SDS011;25200;53.394;10.414;2022-08-25T07:04:26;10.00;;;6.90;;
39518;SDS011;25200;53.394;10.414;2022-08-25T07:06:52;11.50;;;7.65;;
39518;SDS011;25200;53.394;10.414;2022-08-25T07:09:18;10.38;;;7.55;;
39518;SDS011;25200;53.394;10.414;2022-08-25T07:11:44;10.25;;;7.03;;
39518;SDS011;25200;53.394;10.414;2022-08-25T07:14:10;12.20;;;7.97;;
39518;SDS011;25200;53.394;10.414;2022-08-25T07:16:38;10.77;;;7.72;;
39518;SDS011;25200;53.394;10.414;2022-08-25T07:19:04;11.40;;;7.38;;
39518;SDS011;25200;53.394;10.414;2022-08-25T07:21:31;10.50;;;6.82;;
39518;SDS011;25200;53.394;10.414;2022-08-25T07:23:59;13.10;;;8.13;;
39518;SDS011;25200;53.394;10.414;2022-08-25T07:26:27;11.80;;;7.05;;
39518;SDS011;25200;53.394;10.414;2022-08-25T07:28:55;10.57;;;7.15;;
39518;SDS011;25200;53.394;10.414;2022-08-25T07:31:22;11.65;;;7.50;;
39518;SDS011;25200;53.394;10.414;2022-08-25T07:33:48;10.75;;;7.38;;
39518;SDS011;25200;53.394;10.414;2022-08-25T07:36:32;14.27;;;7.85;;
39518;SDS011;25200;53.394;10.414;2022-08-25T07:38:58;10.40;;;6.53;;
39518;SDS011;25200;53.394;10.414;2022-08-25T07:41:29;11.82;;;7.32;;
39518;SDS011;25200;53.394;10.414;2022-08-25T07:44:01;13.00;;;8.32;;
39518;SDS011;25200;53.394;10.414;2022-08-25T07:46:28;11.80;;;7.40;;
39518;SDS011;25200;53.394;10.414;2022-08-25T07:48:53;12.68;;;8.00;;
39518;SDS011;25200;53.394;10.414;2022-08-25T07:51:19;9.98;;;7.20;;
39518;SDS011;25200;53.394;10.414;2022-08-25T07:53:45;9.70;;;6.47;;
39518;SDS011;25200;53.394;10.414;2022-08-25T07:56:11;14.10;;;8.65;;
39518;SDS011;25200;53.394;10.414;2022-08-25T07:58:39;12.27;;;8.23;;
39518;SDS011;25200;53.394;10.414;2022-08-25T08:01:11;11.10;;;6.50;;
39518;SDS011;25200;53.394;10.414;2022-08-25T08:03:39;12.63;;;8.10;;
39518;SDS011;25200;53.394;10.414;2022-08-25T08:06:09;10.13;;;6.97;;
39518;SDS011;25200;53.394;10.414;2022-08-25T08:08:40;10.98;;;7.70;;
39518;SDS011;25200;53.394;10.414;2022-08-25T08:13:50;10.05;;;7.20;;
39518;SDS011;25200;53.394;10.414;2022-08-25T08:16:19;16.02;;;8.95;;
39518;SDS011;25200;53.394;10.414;2022-08-25T08:18:47;14.85;;;8.48;;
39518;SDS011;25200;53.394;10.414;2022-08-25T08:21:14;13.50;;;7.68;;
39518;SDS011;25200;53.394;10.414;2022-08-25T08:23:49;11.85;;;7.95;;
39518;SDS011;25200;53.394;10.414;2022-08-25T08:26:16;11.57;;;8.38;;
39518;SDS011;25200;53.394;10.414;2022-08-25T08:28:42;10.48;;;7.22;;
39518;SDS011;25200;53.394;10.414;2022-08-25T08:31:08;11.00;;;7.28;;
39518;SDS011;25200;53.394;10.414;2022-08-25T08:33:34;14.90;;;6.78;;
39518;SDS011;25200;53.394;10.414;2022-08-25T08:36:02;12.68;;;8.02;;
39518;SDS011;25200;53.394;10.414;2022-08-25T08:38:31;10.93;;;6.20;;
39518;SDS011;25200;53.394;10.414;2022-08-25T08:43:45;12.60;;;8.07;;
39518;SDS011;25200;53.394;10.414;2022-08-25T08:46:16;12.15;;;7.57;;
39518;SDS011;25200;53.394;10.414;2022-08-25T08:51:32;11.13;;;7.22;;
39518;SDS011;25200;53.394;10.414;2022-08-25T08:56:46;10.82;;;6.72;;
39518;SDS011;25200;53.394;10.414;2022-08-25T09:01:48;13.18;;;7.43;;
39518;SDS011;25200;53.394;10.414;2022-08-25T09:06:46;12.48;;;6.82;;
39518;SDS011;25200;53.394;10.414;2022-08-25T09:09:24;9.25;;;6.20;;
39518;SDS011;25200;53.394;10.414;2022-08-25T09:33:48;9.43;;;5.68;;
39518;SDS011;25200;53.394;10.414;2022-08-25T09:36:21;9.32;;;5.60;;
39518;SDS011;25200;53.394;10.414;2022-08-25T09:38:47;9.07;;;4.65;;
39518;SDS011;25200;53.394;10.414;2022-08-25T09:41:17;7.32;;;4.90;;
39518;SDS011;25200;53.394;10.414;2022-08-25T09:43:58;8.10;;;4.50;;
39518;SDS011;25200;53.394;10.414;2022-08-25T09:46:25;8.45;;;4.70;;
39518;SDS011;25200;53.394;10.414;2022-08-25T09:48:56;9.18;;;4.55;;
39518;SDS011;25200;53.394;10.414;2022-08-25T09:51:35;9.27;;;5.28;;
39518;SDS011;25200;53.394;10.414;2022-08-25T10:01:49;7.15;;;4.70;;
39518;SDS011;25200;53.394;10.414;2022-08-25T10:07:04;10.57;;;4.93;;
39518;SDS011;25200;53.394;10.414;2022-08-25T10:09:50;9.73;;;4.57;;
39518;SDS011;25200;53.394;10.414;2022-08-25T10:12:33;6.65;;;4.05;;
39518;SDS011;25200;53.394;10.414;2022-08-25T10:17:53;9.27;;;5.15;;
39518;SDS011;25200;53.394;10.414;2022-08-25T10:20:25;9.50;;;4.47;;
39518;SDS011;25200;53.394;10.414;2022-08-25T10:22:54;8.80;;;4.65;;
39518;SDS011;25200;53.394;10.414;2022-08-25T10:25:35;8.20;;;4.65;;
39518;SDS011;25200;53.394;10.414;2022-08-25T10:28:12;7.50;;;4.40;;
39518;SDS011;25200;53.394;10.414;2022-08-25T10:30:56;8.10;;;4.60;;
39518;SDS011;25200;53.394;10.414;2022-08-25T10:36:23;8.63;;;4.38;;
39518;SDS011;25200;53.394;10.414;2022-08-25T10:39:02;7.75;;;4.45;;
39518;SDS011;25200;53.394;10.414;2022-08-25T10:49:53;7.72;;;4.68;;
39518;SDS011;25200;53.394;10.414;2022-08-25T11:00:40;7.97;;;4.40;;
39518;SDS011;25200;53.394;10.414;2022-08-25T11:06:00;7.28;;;4.20;;
39518;SDS011;25200;53.394;10.414;2022-08-25T11:13:38;7.65;;;4.20;;
39518;SDS011;25200;53.394;10.414;2022-08-25T11:16:23;7.20;;;3.67;;
39518;SDS011;25200;53.394;10.414;2022-08-25T11:19:08;7.80;;;3.50;;
39518;SDS011;25200;53.394;10.414;2022-08-25T11:27:03;10.55;;;3.90;;
39518;SDS011;25200;53.394;10.414;2022-08-25T11:29:32;7.55;;;4.05;;
39518;SDS011;25200;53.394;10.414;2022-08-25T11:32:02;7.05;;;3.85;;
39518;SDS011;25200;53.394;10.414;2022-08-25T11:34:32;8.63;;;3.85;;
39518;SDS011;25200;53.394;10.414;2022-08-25T11:37:00;8.98;;;3.45;;
39518;SDS011;25200;53.394;10.414;2022-08-25T11:45:04;5.97;;;3.60;;
39518;SDS011;25200;53.394;10.414;2022-08-25T11:52:55;7.25;;;3.13;;
39518;SDS011;25200;53.394;10.414;2022-08-25T12:00:53;5.68;;;3.20;;
39518;SDS011;25200;53.394;10.414;2022-08-25T12:06:14;6.25;;;3.10;;
39518;SDS011;25200;53.394;10.414;2022-08-25T12:21:52;5.93;;;3.33;;
39518;SDS011;25200;53.394;10.414;2022-08-25T12:27:27;5.43;;;3.10;;
39518;SDS011;25200;53.394;10.414;2022-08-25T12:35:29;7.30;;;3.67;;
39518;SDS011;25200;53.394;10.414;2022-08-25T12:43:12;7.47;;;3.10;;
39518;SDS011;25200;53.394;10.414;2022-08-25T12:45:53;4.95;;;3.05;;
39518;SDS011;25200;53.394;10.414;2022-08-25T12:48:41;5.22;;;3.17;;
39518;SDS011;25200;53.394;10.414;2022-08-25T12:51:17;7.00;;;3.40;;
39518;SDS011;25200;53.394;10.414;2022-08-25T12:56:19;7.45;;;3.40;;
39518;SDS011;25200;53.394;10.414;2022-08-25T12:59:13;6.50;;;3.42;;
39518;SDS011;25200;53.394;10.414;2022-08-25T13:01:49;5.18;;;3.35;;
39518;SDS011;25200;53.394;10.414;2022-08-25T13:14:57;9.52;;;3.00;;
39518;SDS011;25200;53.394;10.414;2022-08-25T13:17:32;5.85;;;3.35;;
39518;SDS011;25200;53.394;10.414;2022-08-25T13:20:16;5.30;;;3.20;;
39518;SDS011;25200;53.394;10.414;2022-08-25T13:22:51;6.03;;;3.08;;
39518;SDS011;25200;53.394;10.414;2022-08-25T13:25:21;6.60;;;2.97;;
39518;SDS011;25200;53.394;10.414;2022-08-25T13:27:52;5.97;;;3.35;;
39518;SDS011;25200;53.394;10.414;2022-08-25T13:30:22;7.50;;;3.20;;
39518;SDS011;25200;53.394;10.414;2022-08-25T13:32:51;6.65;;;3.13;;
39518;SDS011;25200;53.394;10.414;2022-08-25T13:35:19;4.40;;;2.88;;
39518;SDS011;25200;53.394;10.414;2022-08-25T13:37:47;6.18;;;2.92;;
39518;SDS011;25200;53.394;10.414;2022-08-25T13:40:14;6.57;;;3.10;;
39518;SDS011;25200;53.394;10.414;2022-08-25T13:42:44;5.40;;;3.00;;
39518;SDS011;25200;53.394;10.414;2022-08-25T13:45:14;6.65;;;3.08;;
39518;SDS011;25200;53.394;10.414;2022-08-25T13:47:47;6.40;;;3.25;;
39518;SDS011;25200;53.394;10.414;2022-08-25T13:52:56;6.28;;;3.13;;
39518;SDS011;25200;53.394;10.414;2022-08-25T13:55:33;6.47;;;3.28;;
39518;SDS011;25200;53.394;10.414;2022-08-25T13:58:02;9.35;;;3.15;;
39518;SDS011;25200;53.394;10.414;2022-08-25T14:00:36;6.35;;;3.08;;
39518;SDS011;25200;53.394;10.414;2022-08-25T14:03:26;6.80;;;3.35;;
39518;SDS011;25200;53.394;10.414;2022-08-25T14:08:39;6.68;;;3.30;;
39518;SDS011;25200;53.394;10.414;2022-08-25T14:11:12;7.50;;;3.15;;
39518;SDS011;25200;53.394;10.414;2022-08-25T14:13:59;6.97;;;2.85;;
39518;SDS011;25200;53.394;10.414;2022-08-25T14:16:26;7.32;;;2.95;;
39518;SDS011;25200;53.394;10.414;2022-08-25T14:18:56;7.28;;;3.22;;
39518;SDS011;25200;53.394;10.414;2022-08-25T14:21:28;5.75;;;2.88;;
39518;SDS011;25200;53.394;10.414;2022-08-25T14:23:56;6.80;;;3.20;;
39518;SDS011;25200;53.394;10.414;2022-08-25T14:26:22;8.30;;;3.40;;
39518;SDS011;25200;53.394;10.414;2022-08-25T14:28:48;6.43;;;3.30;;
39518;SDS011;25200;53.394;10.414;2022-08-25T14:31:28;5.60;;;2.90;;
39518;SDS011;25200;53.394;10.414;2022-08-25T14:34:04;6.63;;;3.30;;
39518;SDS011;25200;53.394;10.414;2022-08-25T14:36:36;5.05;;;2.90;;
39518;SDS011;25200;53.394;10.414;2022-08-25T14:39:02;8.60;;;3.30;;
39518;SDS011;25200;53.394;10.414;2022-08-25T14:41:30;5.97;;;3.08;;
39518;SDS011;25200;53.394;10.414;2022-08-25T14:44:01;5.22;;;2.92;;
39518;SDS011;25200;53.394;10.414;2022-08-25T14:46:30;6.15;;;3.10;;
39518;SDS011;25200;53.394;10.414;2022-08-25T14:48:59;6.68;;;3.00;;
39518;SDS011;25200;53.394;10.414;2022-08-25T14:51:31;8.25;;;3.40;;
39518;SDS011;25200;53.394;10.414;2022-08-25T14:53:59;5.70;;;3.22;;
39518;SDS011;25200;53.394;10.414;2022-08-25T14:56:28;8.10;;;2.92;;
39518;SDS011;25200;53.394;10.414;2022-08-25T14:58:55;6.82;;;3.22;;
39518;SDS011;25200;53.394;10.414;2022-08-25T15:01:21;11.68;;;3.50;;
39518;SDS011;25200;53.394;10.414;2022-08-25T15:03:49;8.30;;;3.00;;
39518;SDS011;25200;53.394;10.414;2022-08-25T15:06:18;5.68;;;3.20;;
39518;SDS011;25200;53.394;10.414;2022-08-25T15:08:44;5.75;;;3.17;;
39518;SDS011;25200;53.394;10.414;2022-08-25T15:11:29;8.00;;;3.67;;
39518;SDS011;25200;53.394;10.414;2022-08-25T15:13:55;9.13;;;3.28;;
39518;SDS011;25200;53.394;10.414;2022-08-25T15:16:32;6.60;;;3.45;;
39518;SDS011;25200;53.394;10.414;2022-08-25T15:19:02;7.72;;;3.38;;
39518;SDS011;25200;53.394;10.414;2022-08-25T15:21:30;10.45;;;3.30;;
39518;SDS011;25200;53.394;10.414;2022-08-25T15:23:56;6.47;;;3.30;;
39518;SDS011;25200;53.394;10.414;2022-08-25T15:26:21;6.22;;;3.33;;
39518;SDS011;25200;53.394;10.414;2022-08-25T15:28:48;5.97;;;3.17;;
39518;SDS011;25200;53.394;10.414;2022-08-25T15:31:15;7.30;;;3.10;;
39518;SDS011;25200;53.394;10.414;2022-08-25T15:33:42;6.07;;;3.25;;
39518;SDS011;25200;53.394;10.414;2022-08-25T15:36:08;6.65;;;3.33;;
39518;SDS011;25200;53.394;10.414;2022-08-25T15:38:37;6.20;;;2.92;;
39518;SDS011;25200;53.394;10.414;2022-08-25T15:41:03;6.25;;;3.42;;
39518;SDS011;25200;53.394;10.414;2022-08-25T15:43:29;9.77;;;3.40;;
39518;SDS011;25200;53.394;10.414;2022-08-25T15:45:55;8.15;;;3.50;;
39518;SDS011;25200;53.394;10.414;2022-08-25T15:48:21;6.80;;;3.30;;
39518;SDS011;25200;53.394;10.414;2022-08-25T15:50:49;10.27;;;3.58;;
39518;SDS011;25200;53.394;10.414;2022-08-25T15:53:22;7.18;;;3.35;;
39518;SDS011;25200;53.394;10.414;2022-08-25T15:55:50;9.18;;;3.50;;
39518;SDS011;25200;53.394;10.414;2022-08-25T15:58:17;6.88;;;3.28;;
39518;SDS011;25200;53.394;10.414;2022-08-25T16:00:43;8.25;;;3.42;;
39518;SDS011;25200;53.394;10.414;2022-08-25T16:03:10;6.15;;;3.30;;
39518;SDS011;25200;53.394;10.414;2022-08-25T16:05:37;10.73;;;3.35;;
39518;SDS011;25200;53.394;10.414;2022-08-25T16:08:04;7.47;;;3.60;;
39518;SDS011;25200;53.394;10.414;2022-08-25T16:10:33;8.25;;;3.42;;
39518;SDS011;25200;53.394;10.414;2022-08-25T16:13:02;7.32;;;3.42;;
39518;SDS011;25200;53.394;10.414;2022-08-25T16:15:28;7.57;;;3.97;;
39518;SDS011;25200;53.394;10.414;2022-08-25T16:17:56;7.45;;;3.63;;
39518;SDS011;25200;53.394;10.414;2022-08-25T16:20:24;7.05;;;3.40;;
39518;SDS011;25200;53.394;10.414;2022-08-25T16:22:50;6.43;;;3.40;;
39518;SDS011;25200;53.394;10.414;2022-08-25T16:25:16;6.18;;;3.47;;
39518;SDS011;25200;53.394;10.414;2022-08-25T16:27:41;6.10;;;3.78;;
39518;SDS011;25200;53.394;10.414;2022-08-25T16:30:08;7.53;;;3.65;;
39518;SDS011;25200;53.394;10.414;2022-08-25T16:32:36;8.20;;;3.63;;
39518;SDS011;25200;53.394;10.414;2022-08-25T16:35:03;9.18;;;3.80;;
39518;SDS011;25200;53.394;10.414;2022-08-25T16:37:30;7.97;;;3.63;;
39518;SDS011;25200;53.394;10.414;2022-08-25T16:39:56;6.63;;;3.50;;
39518;SDS011;25200;53.394;10.414;2022-08-25T16:42:22;6.30;;;3.65;;
39518;SDS011;25200;53.394;10.414;2022-08-25T16:44:48;8.05;;;3.90;;
39518;SDS011;25200;53.394;10.414;2022-08-25T16:47:14;7.10;;;3.40;;
39518;SDS011;25200;53.394;10.414;2022-08-25T16:49:40;10.05;;;3.95;;
39518;SDS011;25200;53.394;10.414;2022-08-25T16:52:06;7.15;;;3.70;;
39518;SDS011;25200;53.394;10.414;2022-08-25T16:54:52;8.80;;;3.83;;
39518;SDS011;25200;53.394;10.414;2022-08-25T16:57:37;6.40;;;3.47;;
39518;SDS011;25200;53.394;10.414;2022-08-25T17:00:05;9.05;;;3.70;;
39518;SDS011;25200;53.394;10.414;2022-08-25T17:02:34;9.18;;;3.55;;
39518;SDS011;25200;53.394;10.414;2022-08-25T17:04:59;7.18;;;3.30;;
39518;SDS011;25200;53.394;10.414;2022-08-25T17:07:26;7.45;;;3.35;;
39518;SDS011;25200;53.394;10.414;2022-08-25T17:09:51;6.45;;;3.10;;
39518;SDS011;25200;53.394;10.414;2022-08-25T17:12:17;6.28;;;3.42;;
39518;SDS011;25200;53.394;10.414;2022-08-25T17:14:45;7.97;;;3.55;;